sensor_id;sensor_type;location;lat;lon;timestamp;pressure;altitude;pressure_sealevel;temperature;humidity
30744;BME280;17486;46.738;7.622;2022-07-03T00:00:26;95610.44;;;21.34;54.28
30744;BME280;17486;46.738;7.622;2022-07-03T00:02:52;95631.81;;;21.52;54.21
30744;BME280;17486;46.738;7.622;2022-07-03T00:05:17;95639.66;;;21.54;54.19
30744;BME280;17486;46.738;7.622;2022-07-03T00:07:43;95597.59;;;21.30;54.08
30744;BME280;17486;46.738;7.622;2022-07-03T00:10:08;95635.44;;;21.51;54.12
30744;BME280;17486;46.738;7.622;2022-07-03T00:12:34;95623.00;;;21.42;54.10
30744;BME280;17486;46.738;7.622;2022-07-03T00:14:59;95627.63;;;21.50;54.13
30744;BME280;17486;46.738;7.622;2022-07-03T00:17:25;95619.13;;;21.46;54.17
30744;BME280;17486;46.738;7.622;2022-07-03T00:19:50;95621.47;;;21.49;54.08
30744;BME280;17486;46.738;7.622;2022-07-03T00:22:16;95623.53;;;21.46;54.20
30744;BME280;17486;46.738;7.622;2022-07-03T00:24:52;95620.06;;;21.35;53.98
30744;BME280;17486;46.738;7.622;2022-07-03T00:27:20;95621.72;;;21.36;54.37
30744;BME280;17486;46.738;7.622;2022-07-03T00:29:49;95620.31;;;21.32;54.58
30744;BME280;17486;46.738;7.622;2022-07-03T00:32:24;95616.97;;;21.30;54.52
30744;BME280;17486;46.738;7.622;2022-07-03T00:34:51;95620.81;;;21.16;54.58
30744;BME280;17486;46.738;7.622;2022-07-03T00:37:18;95586.75;;;20.92;54.40
30744;BME280;17486;46.738;7.622;2022-07-03T00:39:43;95615.72;;;21.03;54.66
30744;BME280;17486;46.738;7.622;2022-07-03T00:42:10;95617.53;;;21.03;54.94
30744;BME280;17486;46.738;7.622;2022-07-03T00:45:07;95613.19;;;20.92;54.97
30744;BME280;17486;46.738;7.622;2022-07-03T00:47:35;95621.34;;;20.89;55.28
30744;BME280;17486;46.738;7.622;2022-07-03T00:50:06;95629.28;;;20.89;55.57
30744;BME280;17486;46.738;7.622;2022-07-03T00:52:33;95584.75;;;20.63;55.31
30744;BME280;17486;46.738;7.622;2022-07-03T00:54:59;95621.63;;;20.86;55.54
30744;BME280;17486;46.738;7.622;2022-07-03T00:57:28;95574.69;;;20.57;55.52
30744;BME280;17486;46.738;7.622;2022-07-03T00:59:54;95580.41;;;20.62;55.27
30744;BME280;17486;46.738;7.622;2022-07-03T01:05:36;95620.06;;;20.83;55.28
30744;BME280;17486;46.738;7.622;2022-07-03T01:08:34;95570.22;;;20.58;55.07
30744;BME280;17486;46.738;7.622;2022-07-03T01:16:44;95621.88;;;20.83;55.14
30744;BME280;17486;46.738;7.622;2022-07-03T01:19:37;95625.50;;;20.82;54.88
30744;BME280;17486;46.738;7.622;2022-07-03T01:22:16;95631.88;;;20.79;54.86
30744;BME280;17486;46.738;7.622;2022-07-03T01:27:34;95615.47;;;20.64;54.87
30744;BME280;17486;46.738;7.622;2022-07-03T01:30:08;95628.22;;;20.59;55.05
30744;BME280;17486;46.738;7.622;2022-07-03T01:32:54;95617.66;;;20.59;55.27
30744;BME280;17486;46.738;7.622;2022-07-03T01:35:24;95612.91;;;20.53;55.16
30744;BME280;17486;46.738;7.622;2022-07-03T01:37:54;95610.75;;;20.47;55.32
30744;BME280;17486;46.738;7.622;2022-07-03T01:40:20;95575.50;;;20.15;55.46
30744;BME280;17486;46.738;7.622;2022-07-03T01:42:48;95576.84;;;20.10;55.63
30744;BME280;17486;46.738;7.622;2022-07-03T01:45:15;95597.44;;;20.16;55.69
30744;BME280;17486;46.738;7.622;2022-07-03T01:47:42;95613.25;;;20.27;55.73
30744;BME280;17486;46.738;7.622;2022-07-03T01:50:13;95568.13;;;19.98;55.59
30744;BME280;17486;46.738;7.622;2022-07-03T01:52:43;95609.34;;;20.21;55.75
30744;BME280;17486;46.738;7.622;2022-07-03T01:55:12;95620.59;;;20.24;55.70
30744;BME280;17486;46.738;7.622;2022-07-03T01:57:45;95582.16;;;19.98;55.91
30744;BME280;17486;46.738;7.622;2022-07-03T02:00:12;95608.25;;;20.24;55.85
30744;BME280;17486;46.738;7.622;2022-07-03T02:02:43;95562.41;;;19.93;55.48
30744;BME280;17486;46.738;7.622;2022-07-03T02:05:31;95624.78;;;20.26;55.81
30744;BME280;17486;46.738;7.622;2022-07-03T02:08:06;95632.72;;;20.26;55.18
30744;BME280;17486;46.738;7.622;2022-07-03T02:10:39;95628.50;;;20.24;54.89
30744;BME280;17486;46.738;7.622;2022-07-03T02:13:16;95627.22;;;20.18;54.96
30744;BME280;17486;46.738;7.622;2022-07-03T02:15:43;95633.19;;;20.20;54.67
30744;BME280;17486;46.738;7.622;2022-07-03T02:21:02;95637.91;;;20.16;54.76
30744;BME280;17486;46.738;7.622;2022-07-03T02:23:31;95618.97;;;20.11;54.65
30744;BME280;17486;46.738;7.622;2022-07-03T02:26:02;95583.88;;;19.88;54.86
30744;BME280;17486;46.738;7.622;2022-07-03T02:31:05;95607.63;;;19.99;55.13
30744;BME280;17486;46.738;7.622;2022-07-03T02:33:36;95624.16;;;20.01;55.16
30744;BME280;17486;46.738;7.622;2022-07-03T02:36:05;95579.34;;;19.67;55.33
30744;BME280;17486;46.738;7.622;2022-07-03T02:38:30;95585.59;;;19.66;55.38
30744;BME280;17486;46.738;7.622;2022-07-03T02:41:02;95629.72;;;19.87;55.36
30744;BME280;17486;46.738;7.622;2022-07-03T02:43:51;95638.03;;;19.82;55.66
30744;BME280;17486;46.738;7.622;2022-07-03T02:58:27;95642.78;;;19.77;55.66
30744;BME280;17486;46.738;7.622;2022-07-03T03:01:37;95637.66;;;19.76;55.75
30744;BME280;17486;46.738;7.622;2022-07-03T03:04:17;95640.63;;;19.71;55.70
30744;BME280;17486;46.738;7.622;2022-07-03T03:07:01;95638.25;;;19.68;55.51
30744;BME280;17486;46.738;7.622;2022-07-03T03:09:30;95609.59;;;19.52;55.48
30744;BME280;17486;46.738;7.622;2022-07-03T03:12:01;95599.53;;;19.46;55.52
30744;BME280;17486;46.738;7.622;2022-07-03T03:14:31;95637.53;;;19.66;55.52
30744;BME280;17486;46.738;7.622;2022-07-03T03:17:05;95607.47;;;19.46;55.26
30744;BME280;17486;46.738;7.622;2022-07-03T03:19:37;95627.09;;;19.53;55.18
30744;BME280;17486;46.738;7.622;2022-07-03T03:24:57;95642.59;;;19.58;55.23
30744;BME280;17486;46.738;7.622;2022-07-03T03:27:23;95607.47;;;19.23;55.42
30744;BME280;17486;46.738;7.622;2022-07-03T03:29:49;95604.81;;;19.23;55.41
30744;BME280;17486;46.738;7.622;2022-07-03T03:32:16;95641.28;;;19.41;55.39
30744;BME280;17486;46.738;7.622;2022-07-03T03:34:41;95662.97;;;19.44;55.41
30744;BME280;17486;46.738;7.622;2022-07-03T03:37:07;95658.78;;;19.42;54.96
30744;BME280;17486;46.738;7.622;2022-07-03T03:39:33;95657.31;;;19.37;55.32
30744;BME280;17486;46.738;7.622;2022-07-03T03:41:58;95660.34;;;19.33;55.54
30744;BME280;17486;46.738;7.622;2022-07-03T03:44:26;95623.75;;;19.05;55.65
30744;BME280;17486;46.738;7.622;2022-07-03T03:46:52;95653.75;;;19.27;55.73
30744;BME280;17486;46.738;7.622;2022-07-03T03:49:17;95658.91;;;19.29;55.68
30744;BME280;17486;46.738;7.622;2022-07-03T03:51:43;95609.38;;;19.10;55.70
30744;BME280;17486;46.738;7.622;2022-07-03T03:54:09;95659.97;;;19.37;55.44
30744;BME280;17486;46.738;7.622;2022-07-03T03:56:34;95632.78;;;19.14;55.31
30744;BME280;17486;46.738;7.622;2022-07-03T03:59:00;95623.53;;;19.09;55.45
30744;BME280;17486;46.738;7.622;2022-07-03T04:01:25;95664.78;;;19.32;55.50
30744;BME280;17486;46.738;7.622;2022-07-03T04:03:50;95675.78;;;19.37;55.12
30744;BME280;17486;46.738;7.622;2022-07-03T04:06:19;95668.97;;;19.35;55.36
30744;BME280;17486;46.738;7.622;2022-07-03T04:08:44;95669.06;;;19.33;55.25
30744;BME280;17486;46.738;7.622;2022-07-03T04:11:09;95668.13;;;19.34;55.34
30744;BME280;17486;46.738;7.622;2022-07-03T04:13:35;95683.94;;;19.34;55.34
30744;BME280;17486;46.738;7.622;2022-07-03T04:16:00;95659.72;;;19.29;55.24
30744;BME280;17486;46.738;7.622;2022-07-03T04:18:26;95659.97;;;19.26;55.50
30744;BME280;17486;46.738;7.622;2022-07-03T04:20:51;95656.97;;;19.19;55.43
30744;BME280;17486;46.738;7.622;2022-07-03T04:23:17;95671.00;;;19.31;55.50
30744;BME280;17486;46.738;7.622;2022-07-03T04:25:43;95666.94;;;19.27;55.80
30744;BME280;17486;46.738;7.622;2022-07-03T04:28:08;95628.34;;;19.03;55.87
30744;BME280;17486;46.738;7.622;2022-07-03T04:30:34;95676.88;;;19.24;55.93
30744;BME280;17486;46.738;7.622;2022-07-03T04:32:59;95623.75;;;18.94;56.35
30744;BME280;17486;46.738;7.622;2022-07-03T04:35:25;95631.19;;;19.00;56.43
30744;BME280;17486;46.738;7.622;2022-07-03T04:37:50;95671.34;;;19.27;56.55
30744;BME280;17486;46.738;7.622;2022-07-03T04:40:15;95656.25;;;19.17;56.41
30744;BME280;17486;46.738;7.622;2022-07-03T04:42:41;95661.66;;;19.27;56.47
30744;BME280;17486;46.738;7.622;2022-07-03T04:45:07;95629.03;;;19.05;56.20
30744;BME280;17486;46.738;7.622;2022-07-03T04:47:32;95667.88;;;19.37;56.14
30744;BME280;17486;46.738;7.622;2022-07-03T04:49:58;95670.28;;;19.41;56.04
30744;BME280;17486;46.738;7.622;2022-07-03T04:52:23;95619.22;;;19.19;56.09
30744;BME280;17486;46.738;7.622;2022-07-03T04:54:49;95673.38;;;19.57;55.95
30744;BME280;17486;46.738;7.622;2022-07-03T04:57:14;95680.34;;;19.58;55.88
30744;BME280;17486;46.738;7.622;2022-07-03T04:59:40;95691.03;;;19.68;55.89
30744;BME280;17486;46.738;7.622;2022-07-03T05:02:05;95625.06;;;19.45;55.19
30744;BME280;17486;46.738;7.622;2022-07-03T05:04:31;95673.03;;;19.73;55.27
30744;BME280;17486;46.738;7.622;2022-07-03T05:06:56;95678.06;;;19.76;55.26
30744;BME280;17486;46.738;7.622;2022-07-03T05:09:22;95672.91;;;19.75;55.11
30744;BME280;17486;46.738;7.622;2022-07-03T05:11:47;95668.31;;;19.77;55.27
30744;BME280;17486;46.738;7.622;2022-07-03T05:14:13;95644.84;;;19.62;55.47
30744;BME280;17486;46.738;7.622;2022-07-03T05:16:38;95654.66;;;19.71;55.42
30744;BME280;17486;46.738;7.622;2022-07-03T05:19:03;95649.38;;;19.71;55.31
30744;BME280;17486;46.738;7.622;2022-07-03T05:21:29;95677.69;;;19.92;55.42
30744;BME280;17486;46.738;7.622;2022-07-03T05:23:54;95681.28;;;19.91;55.20
30744;BME280;17486;46.738;7.622;2022-07-03T05:26:20;95628.53;;;19.68;54.95
30744;BME280;17486;46.738;7.622;2022-07-03T05:28:45;95630.47;;;19.66;54.82
30744;BME280;17486;46.738;7.622;2022-07-03T05:31:11;95674.56;;;19.98;54.66
30744;BME280;17486;46.738;7.622;2022-07-03T05:33:36;95674.09;;;20.04;54.57
30744;BME280;17486;46.738;7.622;2022-07-03T05:36:03;95670.59;;;20.04;54.71
30744;BME280;17486;46.738;7.622;2022-07-03T05:38:29;95632.47;;;19.85;54.56
30744;BME280;17486;46.738;7.622;2022-07-03T05:41:21;95679.31;;;20.16;54.77
30744;BME280;17486;46.738;7.622;2022-07-03T05:43:47;95678.56;;;20.25;54.37
30744;BME280;17486;46.738;7.622;2022-07-03T05:46:12;95672.78;;;20.31;54.37
30744;BME280;17486;46.738;7.622;2022-07-03T05:48:37;95672.16;;;20.39;54.32
30744;BME280;17486;46.738;7.622;2022-07-03T05:51:03;95663.75;;;20.45;54.23
30744;BME280;17486;46.738;7.622;2022-07-03T05:53:29;95671.59;;;20.57;54.09
30744;BME280;17486;46.738;7.622;2022-07-03T05:55:55;95652.00;;;20.59;54.21
30744;BME280;17486;46.738;7.622;2022-07-03T05:58:20;95666.03;;;20.71;53.94
30744;BME280;17486;46.738;7.622;2022-07-03T06:00:46;95650.75;;;20.75;54.01
30744;BME280;17486;46.738;7.622;2022-07-03T06:03:11;95612.13;;;20.62;54.09
30744;BME280;17486;46.738;7.622;2022-07-03T06:05:37;95601.28;;;20.65;54.35
30744;BME280;17486;46.738;7.622;2022-07-03T06:08:04;95612.66;;;20.77;54.39
30744;BME280;17486;46.738;7.622;2022-07-03T06:10:29;95643.84;;;21.04;54.84
30744;BME280;17486;46.738;7.622;2022-07-03T06:12:55;95632.91;;;21.09;54.70
30744;BME280;17486;46.738;7.622;2022-07-03T06:15:21;95606.22;;;20.91;55.44
30744;BME280;17486;46.738;7.622;2022-07-03T06:17:46;95607.63;;;20.95;55.79
30744;BME280;17486;46.738;7.622;2022-07-03T06:20:12;95625.66;;;21.11;56.95
30744;BME280;17486;46.738;7.622;2022-07-03T06:22:39;95649.97;;;21.26;57.35
30744;BME280;17486;46.738;7.622;2022-07-03T06:25:05;95624.72;;;21.22;57.38
30744;BME280;17486;46.738;7.622;2022-07-03T06:27:31;95630.19;;;21.30;57.34
30744;BME280;17486;46.738;7.622;2022-07-03T06:29:56;95646.38;;;21.37;57.42
30744;BME280;17486;46.738;7.622;2022-07-03T06:32:22;95598.53;;;21.19;57.57
30744;BME280;17486;46.738;7.622;2022-07-03T06:34:48;95642.88;;;21.58;57.37
30744;BME280;17486;46.738;7.622;2022-07-03T06:37:13;95641.88;;;21.59;57.18
30744;BME280;17486;46.738;7.622;2022-07-03T06:39:40;95602.53;;;21.44;56.93
30744;BME280;17486;46.738;7.622;2022-07-03T06:42:05;95633.13;;;21.68;57.12
30744;BME280;17486;46.738;7.622;2022-07-03T06:44:31;95605.81;;;21.58;57.17
30744;BME280;17486;46.738;7.622;2022-07-03T06:46:56;95640.88;;;21.91;56.88
30744;BME280;17486;46.738;7.622;2022-07-03T06:49:22;95635.03;;;22.07;56.64
30744;BME280;17486;46.738;7.622;2022-07-03T06:51:48;95599.59;;;21.88;56.13
30744;BME280;17486;46.738;7.622;2022-07-03T06:54:13;95589.59;;;21.92;55.68
30744;BME280;17486;46.738;7.622;2022-07-03T06:56:39;95621.09;;;22.24;55.34
30744;BME280;17486;46.738;7.622;2022-07-03T06:59:04;95585.13;;;22.12;55.06
30744;BME280;17486;46.738;7.622;2022-07-03T07:01:30;95621.13;;;22.44;55.01
30744;BME280;17486;46.738;7.622;2022-07-03T07:03:55;95590.28;;;22.33;55.00
30744;BME280;17486;46.738;7.622;2022-07-03T07:06:22;95628.91;;;22.65;54.56
30744;BME280;17486;46.738;7.622;2022-07-03T07:08:47;95623.19;;;22.69;54.34
30744;BME280;17486;46.738;7.622;2022-07-03T07:11:13;95626.94;;;22.77;54.10
30744;BME280;17486;46.738;7.622;2022-07-03T07:13:38;95594.31;;;22.66;53.78
30744;BME280;17486;46.738;7.622;2022-07-03T07:16:04;95618.16;;;22.86;53.09
30744;BME280;17486;46.738;7.622;2022-07-03T07:18:30;95628.06;;;22.84;52.94
30744;BME280;17486;46.738;7.622;2022-07-03T07:20:55;95599.59;;;22.76;52.95
30744;BME280;17486;46.738;7.622;2022-07-03T07:23:21;95583.28;;;22.71;52.53
30744;BME280;17486;46.738;7.622;2022-07-03T07:25:46;95571.41;;;22.75;52.20
30744;BME280;17486;46.738;7.622;2022-07-03T07:28:11;95574.19;;;22.83;51.87
30744;BME280;17486;46.738;7.622;2022-07-03T07:30:37;95601.47;;;23.04;52.06
30744;BME280;17486;46.738;7.622;2022-07-03T07:33:05;95597.56;;;23.08;51.78
30744;BME280;17486;46.738;7.622;2022-07-03T07:35:30;95561.84;;;22.92;51.27
30744;BME280;17486;46.738;7.622;2022-07-03T07:37:56;95605.38;;;23.19;50.03
30744;BME280;17486;46.738;7.622;2022-07-03T07:40:21;95604.38;;;23.20;49.75
30744;BME280;17486;46.738;7.622;2022-07-03T07:42:47;95550.94;;;23.05;49.29
30744;BME280;17486;46.738;7.622;2022-07-03T07:45:12;95585.34;;;23.34;49.34
30744;BME280;17486;46.738;7.622;2022-07-03T07:47:37;95587.00;;;23.35;48.60
30744;BME280;17486;46.738;7.622;2022-07-03T07:50:04;95587.13;;;23.44;48.26
30744;BME280;17486;46.738;7.622;2022-07-03T07:52:29;95554.22;;;23.27;48.18
30744;BME280;17486;46.738;7.622;2022-07-03T07:54:55;95590.53;;;23.54;48.13
30744;BME280;17486;46.738;7.622;2022-07-03T07:57:20;95596.94;;;23.61;47.53
30744;BME280;17486;46.738;7.622;2022-07-03T07:59:45;95541.84;;;23.45;47.85
30744;BME280;17486;46.738;7.622;2022-07-03T08:02:11;95591.19;;;23.84;47.53
30744;BME280;17486;46.738;7.622;2022-07-03T08:04:55;95586.53;;;23.96;47.10
30744;BME280;17486;46.738;7.622;2022-07-03T08:07:39;95540.28;;;23.89;47.43
30744;BME280;17486;46.738;7.622;2022-07-03T08:10:05;95539.94;;;24.02;47.17
30744;BME280;17486;46.738;7.622;2022-07-03T08:12:31;95531.88;;;24.11;47.13
30744;BME280;17486;46.738;7.622;2022-07-03T08:14:56;95538.78;;;24.22;46.53
30744;BME280;17486;46.738;7.622;2022-07-03T08:17:21;95571.56;;;24.49;46.65
30744;BME280;17486;46.738;7.622;2022-07-03T08:19:47;95567.59;;;24.53;46.30
30744;BME280;17486;46.738;7.622;2022-07-03T08:22:12;95576.13;;;24.57;46.15
30744;BME280;17486;46.738;7.622;2022-07-03T08:24:38;95536.31;;;24.47;46.75
30744;BME280;17486;46.738;7.622;2022-07-03T08:27:05;95533.66;;;24.47;46.26
30744;BME280;17486;46.738;7.622;2022-07-03T08:29:30;95572.22;;;24.69;45.72
30744;BME280;17486;46.738;7.622;2022-07-03T08:31:55;95539.03;;;24.55;45.56
30744;BME280;17486;46.738;7.622;2022-07-03T08:34:22;95573.78;;;24.80;45.56
30744;BME280;17486;46.738;7.622;2022-07-03T08:36:48;95564.53;;;24.84;46.13
30744;BME280;17486;46.738;7.622;2022-07-03T08:39:13;95566.19;;;24.85;45.96
30744;BME280;17486;46.738;7.622;2022-07-03T08:41:42;95566.88;;;24.87;45.66
30744;BME280;17486;46.738;7.622;2022-07-03T08:44:09;95562.91;;;24.91;45.25
30744;BME280;17486;46.738;7.622;2022-07-03T08:46:38;95564.41;;;24.94;44.83
30744;BME280;17486;46.738;7.622;2022-07-03T08:49:08;95537.72;;;24.77;46.47
30744;BME280;17486;46.738;7.622;2022-07-03T08:51:35;95565.97;;;25.05;46.04
30744;BME280;17486;46.738;7.622;2022-07-03T08:54:01;95535.63;;;24.89;45.41
30744;BME280;17486;46.738;7.622;2022-07-03T08:56:29;95531.94;;;24.90;45.51
30744;BME280;17486;46.738;7.622;2022-07-03T08:58:58;95556.47;;;25.02;46.31
30744;BME280;17486;46.738;7.622;2022-07-03T09:01:24;95575.03;;;25.20;47.20
30744;BME280;17486;46.738;7.622;2022-07-03T09:03:51;95530.88;;;25.01;46.97
30744;BME280;17486;46.738;7.622;2022-07-03T09:06:17;95531.41;;;25.13;46.91
30744;BME280;17486;46.738;7.622;2022-07-03T09:08:43;95532.47;;;25.28;46.90
30744;BME280;17486;46.738;7.622;2022-07-03T09:11:10;95572.41;;;25.63;45.22
30744;BME280;17486;46.738;7.622;2022-07-03T09:13:36;95564.59;;;25.70;44.78
30744;BME280;17486;46.738;7.622;2022-07-03T09:16:01;95541.94;;;25.65;44.37
30744;BME280;17486;46.738;7.622;2022-07-03T09:18:43;95574.00;;;25.90;44.12
30744;BME280;17486;46.738;7.622;2022-07-03T09:21:09;95569.38;;;26.09;44.52
30744;BME280;17486;46.738;7.622;2022-07-03T09:23:36;95566.22;;;26.13;44.46
30744;BME280;17486;46.738;7.622;2022-07-03T09:26:03;95564.56;;;26.12;43.75
30744;BME280;17486;46.738;7.622;2022-07-03T09:28:50;95563.06;;;26.18;44.26
30744;BME280;17486;46.738;7.622;2022-07-03T09:31:20;95559.25;;;26.37;43.22
30744;BME280;17486;46.738;7.622;2022-07-03T09:34:03;95551.06;;;26.47;39.70
30744;BME280;17486;46.738;7.622;2022-07-03T09:36:43;95548.22;;;26.73;38.00
30744;BME280;17486;46.738;7.622;2022-07-03T09:44:34;95527.97;;;27.04;40.49
30744;BME280;17486;46.738;7.622;2022-07-03T09:47:06;95554.72;;;27.35;40.19
30744;BME280;17486;46.738;7.622;2022-07-03T09:49:57;95562.09;;;27.33;40.30
30744;BME280;17486;46.738;7.622;2022-07-03T09:54:51;95529.91;;;27.26;40.25
30744;BME280;17486;46.738;7.622;2022-07-03T09:57:18;95554.06;;;27.41;40.21
30744;BME280;17486;46.738;7.622;2022-07-03T09:59:44;95549.09;;;27.38;40.55
30744;BME280;17486;46.738;7.622;2022-07-03T10:02:09;95522.63;;;27.12;38.32
30744;BME280;17486;46.738;7.622;2022-07-03T10:04:35;95546.91;;;27.34;39.68
30744;BME280;17486;46.738;7.622;2022-07-03T10:07:00;95512.25;;;27.17;38.28
30744;BME280;17486;46.738;7.622;2022-07-03T10:09:32;95548.91;;;27.40;38.84
30744;BME280;17486;46.738;7.622;2022-07-03T10:11:59;95499.56;;;27.19;36.90
30744;BME280;17486;46.738;7.622;2022-07-03T10:14:27;95526.19;;;27.44;36.42
30744;BME280;17486;46.738;7.622;2022-07-03T10:16:53;95518.28;;;27.51;36.22
30744;BME280;17486;46.738;7.622;2022-07-03T10:19:22;95516.44;;;27.59;35.60
30744;BME280;17486;46.738;7.622;2022-07-03T10:22:00;95513.88;;;27.66;35.04
30744;BME280;17486;46.738;7.622;2022-07-03T10:24:27;95516.00;;;27.71;35.37
30744;BME280;17486;46.738;7.622;2022-07-03T10:26:55;95480.50;;;27.62;38.62
30744;BME280;17486;46.738;7.622;2022-07-03T10:29:22;95495.53;;;27.86;39.42
30744;BME280;17486;46.738;7.622;2022-07-03T10:31:48;95478.06;;;27.75;39.65
30744;BME280;17486;46.738;7.622;2022-07-03T10:34:19;95510.69;;;27.94;40.97
30744;BME280;17486;46.738;7.622;2022-07-03T10:36:47;95507.84;;;27.95;40.96
30744;BME280;17486;46.738;7.622;2022-07-03T10:42:04;95501.88;;;27.85;40.35
30744;BME280;17486;46.738;7.622;2022-07-03T10:45:10;95508.97;;;27.78;40.17
30744;BME280;17486;46.738;7.622;2022-07-03T10:47:42;95497.59;;;27.76;40.34
30744;BME280;17486;46.738;7.622;2022-07-03T10:50:19;95485.59;;;27.72;40.33
30744;BME280;17486;46.738;7.622;2022-07-03T10:52:45;95481.81;;;27.89;39.94
30744;BME280;17486;46.738;7.622;2022-07-03T10:55:13;95480.75;;;27.99;40.54
30744;BME280;17486;46.738;7.622;2022-07-03T10:57:40;95490.31;;;28.16;40.68
30744;BME280;17486;46.738;7.622;2022-07-03T11:00:16;95496.75;;;28.30;39.65
30744;BME280;17486;46.738;7.622;2022-07-03T11:02:53;95467.22;;;28.23;39.61
30744;BME280;17486;46.738;7.622;2022-07-03T11:05:23;95479.78;;;28.38;38.60
30744;BME280;17486;46.738;7.622;2022-07-03T11:13:08;95478.19;;;28.82;37.55
30744;BME280;17486;46.738;7.622;2022-07-03T11:15:50;95467.56;;;28.88;37.85
30744;BME280;17486;46.738;7.622;2022-07-03T11:18:31;95489.28;;;28.93;35.26
30744;BME280;17486;46.738;7.622;2022-07-03T11:23:44;95444.13;;;28.90;36.87
30744;BME280;17486;46.738;7.622;2022-07-03T11:41:21;95446.81;;;29.78;33.29
30744;BME280;17486;46.738;7.622;2022-07-03T11:43:48;95454.72;;;29.65;32.64
30744;BME280;17486;46.738;7.622;2022-07-03T11:46:21;95455.47;;;29.59;32.61
30744;BME280;17486;46.738;7.622;2022-07-03T11:48:47;95416.34;;;29.43;33.13
30744;BME280;17486;46.738;7.622;2022-07-03T11:51:13;95424.94;;;29.38;32.97
30744;BME280;17486;46.738;7.622;2022-07-03T11:53:39;95453.66;;;29.59;33.26
30744;BME280;17486;46.738;7.622;2022-07-03T11:56:10;95453.47;;;29.61;33.66
30744;BME280;17486;46.738;7.622;2022-07-03T11:58:45;95459.09;;;29.51;33.62
30744;BME280;17486;46.738;7.622;2022-07-03T12:01:28;95452.94;;;29.51;34.27
30744;BME280;17486;46.738;7.622;2022-07-03T12:04:07;95445.03;;;29.64;34.31
30744;BME280;17486;46.738;7.622;2022-07-03T12:06:58;95445.75;;;29.73;34.62
30744;BME280;17486;46.738;7.622;2022-07-03T12:12:02;95451.13;;;29.94;34.44
30744;BME280;17486;46.738;7.622;2022-07-03T12:14:42;95444.44;;;30.05;34.55
30744;BME280;17486;46.738;7.622;2022-07-03T12:17:25;95406.03;;;30.05;34.79
30744;BME280;17486;46.738;7.622;2022-07-03T12:19:59;95396.56;;;30.09;33.66
30744;BME280;17486;46.738;7.622;2022-07-03T12:22:27;95427.84;;;30.23;34.38
30744;BME280;17486;46.738;7.622;2022-07-03T12:24:58;95432.28;;;30.38;34.69
30744;BME280;17486;46.738;7.622;2022-07-03T12:27:24;95399.69;;;30.41;33.99
30744;BME280;17486;46.738;7.622;2022-07-03T12:29:51;95421.28;;;30.89;31.84
30744;BME280;17486;46.738;7.622;2022-07-03T12:32:17;95423.50;;;31.14;31.77
30744;BME280;17486;46.738;7.622;2022-07-03T12:34:42;95385.03;;;31.20;31.58
30744;BME280;17486;46.738;7.622;2022-07-03T12:37:08;95383.69;;;31.45;31.95
30744;BME280;17486;46.738;7.622;2022-07-03T12:39:43;95406.31;;;31.84;31.42
30744;BME280;17486;46.738;7.622;2022-07-03T12:42:18;95402.81;;;31.97;31.12
30744;BME280;17486;46.738;7.622;2022-07-03T12:45:01;95376.31;;;31.87;30.95
30744;BME280;17486;46.738;7.622;2022-07-03T12:47:27;95404.47;;;32.11;30.72
30744;BME280;17486;46.738;7.622;2022-07-03T12:50:01;95405.28;;;31.98;29.61
30744;BME280;17486;46.738;7.622;2022-07-03T12:52:31;95361.81;;;31.88;30.35
30744;BME280;17486;46.738;7.622;2022-07-03T12:54:59;95394.13;;;32.21;29.63
30744;BME280;17486;46.738;7.622;2022-07-03T12:57:25;95383.34;;;32.35;29.75
30744;BME280;17486;46.738;7.622;2022-07-03T13:00:13;95364.50;;;32.15;29.31
30744;BME280;17486;46.738;7.622;2022-07-03T13:02:44;95381.72;;;32.20;29.25
30744;BME280;17486;46.738;7.622;2022-07-03T13:05:24;95399.72;;;32.40;29.28
30744;BME280;17486;46.738;7.622;2022-07-03T13:07:54;95386.63;;;32.50;29.40
30744;BME280;17486;46.738;7.622;2022-07-03T13:10:22;95360.56;;;32.44;28.97
30744;BME280;17486;46.738;7.622;2022-07-03T13:12:56;95396.94;;;32.67;28.76
30744;BME280;17486;46.738;7.622;2022-07-03T13:15:27;95357.44;;;32.47;27.99
30744;BME280;17486;46.738;7.622;2022-07-03T13:20:19;95385.56;;;32.78;28.64
30744;BME280;17486;46.738;7.622;2022-07-03T13:22:47;95391.75;;;32.85;28.42
30744;BME280;17486;46.738;7.622;2022-07-03T13:25:12;95402.13;;;32.75;28.11
30744;BME280;17486;46.738;7.622;2022-07-03T13:27:38;95397.59;;;32.69;28.20
30744;BME280;17486;46.738;7.622;2022-07-03T13:30:03;95351.03;;;32.48;28.70
30744;BME280;17486;46.738;7.622;2022-07-03T13:32:29;95389.50;;;32.82;28.79
30744;BME280;17486;46.738;7.622;2022-07-03T13:34:54;95381.78;;;32.93;28.97
30744;BME280;17486;46.738;7.622;2022-07-03T13:37:20;95364.22;;;32.83;28.84
30744;BME280;17486;46.738;7.622;2022-07-03T13:39:45;95388.19;;;32.98;28.60
30744;BME280;17486;46.738;7.622;2022-07-03T13:42:10;95384.00;;;33.02;28.00
30744;BME280;17486;46.738;7.622;2022-07-03T13:44:36;95375.28;;;33.14;28.19
30744;BME280;17486;46.738;7.622;2022-07-03T13:47:03;95380.81;;;33.32;28.23
30744;BME280;17486;46.738;7.622;2022-07-03T13:49:33;95385.16;;;33.33;29.46
30744;BME280;17486;46.738;7.622;2022-07-03T13:51:59;95344.53;;;33.21;29.02
30744;BME280;17486;46.738;7.622;2022-07-03T13:54:24;95341.66;;;33.16;27.36
30744;BME280;17486;46.738;7.622;2022-07-03T13:56:50;95337.94;;;33.17;27.95
30744;BME280;17486;46.738;7.622;2022-07-03T13:59:16;95367.28;;;33.39;28.07
30744;BME280;17486;46.738;7.622;2022-07-03T14:01:42;95358.50;;;33.50;28.21
30744;BME280;17486;46.738;7.622;2022-07-03T14:04:08;95340.88;;;33.48;28.04
30744;BME280;17486;46.738;7.622;2022-07-03T14:06:34;95334.47;;;33.49;27.42
30744;BME280;17486;46.738;7.622;2022-07-03T14:08:59;95353.59;;;33.72;28.21
30744;BME280;17486;46.738;7.622;2022-07-03T14:11:25;95363.09;;;33.82;27.67
30744;BME280;17486;46.738;7.622;2022-07-03T14:13:50;95343.00;;;33.71;27.15
30744;BME280;17486;46.738;7.622;2022-07-03T14:16:16;95366.16;;;33.79;26.79
30744;BME280;17486;46.738;7.622;2022-07-03T14:18:41;95364.06;;;33.87;27.03